createdAt,value
2022-08-23T00:02:27.999Z,102012.38
2022-08-23T00:05:08.456Z,102018.59
2022-08-23T00:07:43.655Z,102014.19
2022-08-23T00:10:16.776Z,102016.91
2022-08-23T00:12:47.243Z,102017.84
2022-08-23T00:15:19.415Z,102012.56
2022-08-23T00:17:48.132Z,102016.16
2022-08-23T00:20:19.740Z,102009.09
2022-08-23T00:22:47.605Z,102008.31
2022-08-23T00:25:15.734Z,102012.66
2022-08-23T00:27:42.980Z,102001.34
2022-08-23T00:30:13.458Z,102003.91
2022-08-23T00:32:42.104Z,102007.34
2022-08-23T00:35:11.868Z,102014.41
2022-08-23T00:37:39.307Z,102004.69
2022-08-23T00:40:10.137Z,101994.25
2022-08-23T00:43:25.066Z,101997.06
2022-08-23T00:46:36.118Z,101992.72
2022-08-23T00:49:10.882Z,101997.06
2022-08-23T00:51:54.212Z,101998.94
2022-08-23T00:54:27.202Z,101998.09
2022-08-23T00:56:58.713Z,101988.72
2022-08-23T00:59:26.318Z,101990.47
2022-08-23T01:01:53.562Z,101990.47
2022-08-23T01:04:21.120Z,101996.47
2022-08-23T01:07:29.376Z,101999.13
2022-08-23T01:10:02.630Z,102000.00
2022-08-23T01:12:42.066Z,101992.94
2022-08-23T01:15:41.383Z,101995.59
2022-08-23T01:18:11.327Z,101998.25
2022-08-23T01:21:13.428Z,102000.00
2022-08-23T01:24:00.845Z,101996.59
2022-08-23T01:26:31.955Z,101995.66
2022-08-23T01:28:59.178Z,102007.06
2022-08-23T01:31:28.056Z,102005.25
2022-08-23T01:34:06.719Z,102007.91
2022-08-23T01:36:35.803Z,101995.72
2022-08-23T01:39:05.876Z,102009.66
2022-08-23T01:41:33.015Z,102000.03
2022-08-23T01:44:00.667Z,102009.66
2022-08-23T01:46:28.064Z,102004.56
2022-08-23T01:48:55.580Z,102012.38
2022-08-23T01:51:22.768Z,102000.09
2022-08-23T01:53:50.616Z,102000.03
2022-08-23T01:56:39.109Z,101997.38
2022-08-23T01:59:09.398Z,102007.25
2022-08-23T02:01:37.235Z,101999.41
2022-08-23T02:04:05.582Z,102002.84
2022-08-23T02:06:33.843Z,102010.81
2022-08-23T02:09:01.187Z,101999.56
2022-08-23T02:11:43.028Z,102013.56
2022-08-23T02:14:18.695Z,102019.81
2022-08-23T02:17:02.980Z,102014.59
2022-08-23T02:19:34.826Z,102016.50
2022-08-23T02:22:03.328Z,102017.38
2022-08-23T02:24:31.661Z,102013.13
2022-08-23T02:27:05.181Z,102014.06
2022-08-23T02:29:36.177Z,102023.66
2022-08-23T02:32:07.768Z,102015.78
2022-08-23T02:34:37.480Z,102018.44
2022-08-23T02:37:06.950Z,102019.44
2022-08-23T02:39:34.152Z,102024.88
2022-08-23T02:42:02.165Z,102035.50
2022-08-23T02:44:31.322Z,102026.00
2022-08-23T02:46:58.634Z,102031.19
2022-08-23T02:49:26.398Z,102017.28
2022-08-23T02:51:53.886Z,102028.53
2022-08-23T02:54:21.077Z,102025.06
2022-08-23T02:56:48.285Z,102012.88
2022-08-23T02:59:15.525Z,102019.88
2022-08-23T03:01:42.761Z,102021.63
2022-08-23T03:04:11.279Z,102019.16
2022-08-23T03:06:39.255Z,102028.00
2022-08-23T03:09:07.880Z,102031.53
2022-08-23T03:11:36.313Z,102037.75
2022-08-23T03:14:04.352Z,102024.75
2022-08-23T03:16:31.393Z,102036.97
2022-08-23T03:18:58.555Z,102044.06
2022-08-23T03:21:25.533Z,102045.00
2022-08-23T03:23:52.537Z,102049.38
2022-08-23T03:26:19.881Z,102044.06
2022-08-23T03:28:47.637Z,102037.19
2022-08-23T03:31:16.712Z,102050.34
2022-08-23T03:33:44.759Z,102048.66
2022-08-23T03:36:13.107Z,102057.50
2022-08-23T03:38:41.017Z,102046.31
2022-08-23T03:41:08.941Z,102050.66
2022-08-23T03:43:36.706Z,102057.59
2022-08-23T03:46:05.804Z,102052.53
2022-08-23T03:48:33.159Z,102044.78
2022-08-23T03:51:00.424Z,102055.25
2022-08-23T03:53:27.535Z,102059.69
2022-08-23T03:55:55.423Z,102058.72
2022-08-23T03:58:23.535Z,102052.75
2022-08-23T04:00:50.548Z,102065.00
2022-08-23T04:03:17.573Z,102064.13
2022-08-23T04:05:44.852Z,102069.44
2022-08-23T04:08:13.987Z,102059.81
2022-08-23T04:10:46.786Z,102063.41
2022-08-23T04:13:16.551Z,102067.16
2022-08-23T04:15:43.586Z,102064.69
2022-08-23T04:18:10.754Z,102077.88
2022-08-23T04:20:38.039Z,102077.97
2022-08-23T04:23:05.564Z,102071.03
2022-08-23T04:25:35.503Z,102078.06
2022-08-23T04:28:04.853Z,102090.31
2022-08-23T04:30:33.381Z,102084.13
2022-08-23T04:33:01.644Z,102077.28
2022-08-23T04:35:29.830Z,102089.41
2022-08-23T04:37:56.966Z,102079.06
2022-08-23T04:40:42.690Z,102086.09
2022-08-23T04:43:09.834Z,102089.69
2022-08-23T04:45:40.875Z,102094.94
2022-08-23T04:48:11.965Z,102111.56
2022-08-23T04:50:40.808Z,102101.91
2022-08-23T04:53:08.856Z,102104.72
2022-08-23T04:55:36.801Z,102102.16
2022-08-23T04:58:05.837Z,102116.94
2022-08-23T05:00:33.845Z,102093.31
2022-08-23T05:03:00.957Z,102108.22
2022-08-23T05:05:28.159Z,102120.56
2022-08-23T05:07:55.614Z,102106.59
2022-08-23T05:10:22.933Z,102110.03
2022-08-23T05:12:50.012Z,102124.94
2022-08-23T05:15:17.677Z,102112.31
2022-08-23T05:17:45.167Z,102127.50
2022-08-23T05:20:12.400Z,102107.53
2022-08-23T05:22:41.779Z,102131.19
2022-08-23T05:25:09.601Z,102126.03
2022-08-23T05:27:38.098Z,102132.34
2022-08-23T05:30:07.982Z,102126.44
2022-08-23T05:32:41.545Z,102115.34
2022-08-23T05:35:09.420Z,102127.97
2022-08-23T05:37:36.679Z,102131.91
2022-08-23T05:40:04.908Z,102134.25
2022-08-23T05:42:33.719Z,102121.16
2022-08-23T05:45:00.977Z,102118.59
2022-08-23T05:47:33.942Z,102124.78
2022-08-23T05:50:01.834Z,102124.78
2022-08-23T05:52:29.353Z,102129.16
2022-08-23T05:54:56.682Z,102127.50
2022-08-23T05:57:24.270Z,102130.22
2022-08-23T05:59:51.454Z,102127.66
2022-08-23T06:02:18.414Z,102133.19
2022-08-23T06:04:45.459Z,102142.19
2022-08-23T06:07:12.512Z,102134.41
2022-08-23T06:09:39.511Z,102143.41
2022-08-23T06:12:06.681Z,102128.59
2022-08-23T06:14:33.758Z,102127.59
2022-08-23T06:17:00.841Z,102135.47
2022-08-23T06:19:28.037Z,102135.44
2022-08-23T06:21:55.571Z,102129.19
2022-08-23T06:24:23.314Z,102135.25
2022-08-23T06:26:50.999Z,102139.53
2022-08-23T06:29:20.525Z,102140.16
2022-08-23T06:31:51.688Z,102138.00
2022-08-23T06:34:33.617Z,102146.59
2022-08-23T06:37:07.674Z,102141.06
2022-08-23T06:39:37.669Z,102143.38
2022-08-23T06:42:37.088Z,102140.31
2022-08-23T06:44:59.618Z,102134.75
2022-08-23T06:47:27.189Z,102137.13
2022-08-23T06:49:58.405Z,102127.00
2022-08-23T06:52:29.785Z,102147.69
2022-08-23T06:54:57.646Z,102137.66
2022-08-23T06:57:25.073Z,102141.69
2022-08-23T06:59:52.511Z,102131.72
2022-08-23T07:02:19.667Z,102125.28
2022-08-23T07:04:54.006Z,102126.72
2022-08-23T07:07:22.419Z,102122.19
2022-08-23T07:09:50.025Z,102122.78
2022-08-23T07:12:20.127Z,102134.72
2022-08-23T07:14:49.583Z,102128.03
2022-08-23T07:17:17.201Z,102129.50
2022-08-23T07:19:45.217Z,102130.00
2022-08-23T07:22:15.635Z,102134.28
2022-08-23T07:24:43.645Z,102137.59
2022-08-23T07:27:12.689Z,102144.41
2022-08-23T07:29:40.646Z,102136.38
2022-08-23T07:32:09.231Z,102148.41
2022-08-23T07:34:36.969Z,102147.63
2022-08-23T07:37:15.761Z,102142.94
2022-08-23T07:39:45.276Z,102147.66
2022-08-23T07:42:22.762Z,102145.56
2022-08-23T07:44:54.310Z,102145.34
2022-08-23T07:47:23.363Z,102141.44
2022-08-23T07:49:51.547Z,102131.50
2022-08-23T07:52:19.368Z,102138.41
2022-08-23T07:54:49.627Z,102133.06
2022-08-23T07:57:20.602Z,102137.25
2022-08-23T07:59:49.750Z,102140.34
2022-08-23T08:02:18.581Z,102151.38
2022-08-23T08:04:46.910Z,102144.31
2022-08-23T08:07:21.096Z,102153.63
2022-08-23T08:09:50.380Z,102160.81
2022-08-23T08:12:20.999Z,102159.16
2022-08-23T08:14:52.179Z,102166.38
2022-08-23T08:17:26.871Z,102154.00
2022-08-23T08:20:00.699Z,102161.31
2022-08-23T08:22:29.101Z,102148.94
2022-08-23T08:24:58.421Z,102154.03
2022-08-23T08:27:27.215Z,102159.16
2022-08-23T08:30:02.029Z,102161.50
2022-08-23T08:32:30.699Z,102163.25
2022-08-23T08:34:58.620Z,102158.56
2022-08-23T08:37:27.319Z,102163.34
2022-08-23T08:39:55.366Z,102151.81
2022-08-23T08:42:42.364Z,102167.53
2022-08-23T08:45:32.859Z,102153.22
2022-08-23T08:48:13.508Z,102146.06
2022-08-23T08:50:51.278Z,102156.50
2022-08-23T08:53:25.422Z,102152.81
2022-08-23T08:56:11.487Z,102150.06
2022-08-23T08:59:01.958Z,102154.16
2022-08-23T09:01:37.340Z,102141.72
2022-08-23T09:04:08.687Z,102159.03
2022-08-23T09:07:04.507Z,102158.91
2022-08-23T09:10:10.964Z,102148.19
2022-08-23T09:13:05.711Z,102154.91
2022-08-23T09:16:14.543Z,102151.38
2022-08-23T09:18:43.686Z,102142.25
2022-08-23T09:21:11.476Z,102151.75
2022-08-23T09:23:46.181Z,102149.00
2022-08-23T09:26:33.472Z,102142.63
2022-08-23T09:29:18.077Z,102140.56
2022-08-23T09:31:55.174Z,102148.50
2022-08-23T09:34:36.296Z,102135.19
2022-08-23T09:37:23.752Z,102131.66
2022-08-23T09:40:18.030Z,102140.84
2022-08-23T09:42:48.277Z,102145.28
2022-08-23T09:45:35.783Z,102121.50
2022-08-23T09:48:06.326Z,102130.22
2022-08-23T09:50:50.099Z,102136.75
2022-08-23T09:53:28.061Z,102132.09
2022-08-23T09:56:12.266Z,102116.59
2022-08-23T09:58:47.198Z,102133.81
2022-08-23T10:01:38.918Z,102130.81
2022-08-23T10:04:34.756Z,102125.28
2022-08-23T10:07:23.348Z,102131.69
2022-08-23T10:09:51.072Z,102108.84
2022-08-23T10:12:18.318Z,102126.03
2022-08-23T10:14:46.860Z,102131.41
2022-08-23T10:17:41.762Z,102121.53
2022-08-23T10:20:57.929Z,102129.16
2022-08-23T10:23:58.705Z,102124.66
2022-08-23T10:26:35.476Z,102109.00
2022-08-23T10:29:41.010Z,102112.88
2022-08-23T10:32:31.798Z,102112.88
2022-08-23T10:35:14.951Z,102120.16
2022-08-23T10:38:09.218Z,102112.97
2022-08-23T10:41:04.274Z,102107.34
2022-08-23T10:44:03.258Z,102116.19
2022-08-23T10:46:38.797Z,102109.94
2022-08-23T10:49:15.136Z,102113.41
2022-08-23T10:51:51.721Z,102096.97
2022-08-23T10:54:35.698Z,102098.97
2022-08-23T10:57:06.303Z,102105.44
2022-08-23T10:59:37.233Z,102103.53
2022-08-23T11:02:45.650Z,102104.16
2022-08-23T11:05:32.783Z,102108.44
2022-08-23T11:08:30.706Z,102109.41
2022-08-23T11:10:57.810Z,102097.94
2022-08-23T11:13:29.333Z,102095.03
2022-08-23T11:16:23.734Z,102100.75
2022-08-23T11:18:51.637Z,102081.09
2022-08-23T11:21:18.641Z,102087.84
2022-08-23T11:23:58.882Z,102093.88
2022-08-23T11:26:38.052Z,102092.09
2022-08-23T11:29:07.767Z,102095.56
2022-08-23T11:32:15.604Z,102101.88
2022-08-23T11:34:56.905Z,102090.44
2022-08-23T11:37:29.947Z,102085.78
2022-08-23T11:39:59.720Z,102091.06
2022-08-23T11:42:38.839Z,102095.31
2022-08-23T11:45:33.332Z,102036.16
2022-08-23T11:48:19.322Z,102095.03
2022-08-23T11:50:57.754Z,102087.75
2022-08-23T11:53:54.797Z,102093.13
2022-08-23T11:56:55.811Z,102074.59
2022-08-23T11:59:34.994Z,102095.50
2022-08-23T12:02:41.842Z,102089.97
2022-08-23T12:05:32.511Z,102094.31
2022-08-23T12:08:04.542Z,102099.66
2022-08-23T12:10:40.693Z,102100.53
2022-08-23T12:14:00.229Z,102096.91
2022-08-23T12:16:33.472Z,102053.94
2022-08-23T12:19:09.717Z,102100.78
2022-08-23T12:21:48.485Z,102087.59
2022-08-23T12:24:22.067Z,102092.75
2022-08-23T12:26:59.151Z,102083.66
2022-08-23T12:30:20.681Z,102092.41
2022-08-23T12:33:16.004Z,102080.03
2022-08-23T12:36:04.165Z,102084.25
2022-08-23T12:39:20.125Z,102077.41
2022-08-23T12:42:15.880Z,102083.38
2022-08-23T12:44:46.962Z,102070.63
2022-08-23T12:47:21.007Z,102075.75
2022-08-23T12:50:32.677Z,102075.66
2022-08-23T12:53:17.229Z,102082.84
2022-08-23T12:55:52.031Z,102082.84
2022-08-23T12:58:34.685Z,102078.34
2022-08-23T13:01:18.598Z,102077.47
2022-08-23T13:03:52.925Z,102082.94
2022-08-23T13:06:27.934Z,102066.91
2022-08-23T13:09:04.686Z,102063.63
2022-08-23T13:11:34.918Z,102082.16
2022-08-23T13:14:37.571Z,102073.13
2022-08-23T13:17:25.816Z,102064.22
2022-08-23T13:20:02.013Z,102064.13
2022-08-23T13:22:54.455Z,102066.22
2022-08-23T13:25:40.924Z,102066.72
2022-08-23T13:28:31.147Z,102069.41
2022-08-23T13:31:08.576Z,102067.00
2022-08-23T13:33:37.194Z,102058.06
2022-08-23T13:36:21.771Z,102043.88
2022-08-23T13:38:49.850Z,102059.81
2022-08-23T13:41:39.077Z,102056.44
2022-08-23T13:44:12.033Z,102045.03
2022-08-23T13:46:47.310Z,102064.31
2022-08-23T13:49:21.919Z,102060.75
2022-08-23T13:54:50.905Z,102064.13
2022-08-23T13:57:21.427Z,102059.63
2022-08-23T13:59:53.520Z,102061.94
2022-08-23T14:02:24.006Z,102055.78
2022-08-23T14:04:51.398Z,102061.06
2022-08-23T14:07:18.622Z,102059.25
2022-08-23T14:09:46.048Z,102050.41
2022-08-23T14:12:22.718Z,102054.25
2022-08-23T14:14:50.777Z,102059.53
2022-08-23T14:17:20.499Z,102072.75
2022-08-23T14:20:33.054Z,102065.78
2022-08-23T14:22:36.179Z,102063.28
2022-08-23T14:25:05.031Z,102064.03
2022-08-23T14:27:33.527Z,102045.03
2022-08-23T14:30:01.137Z,102060.50
2022-08-23T14:32:38.633Z,102061.53
2022-08-23T14:35:08.006Z,102057.03
2022-08-23T14:40:25.196Z,102059.81
2022-08-23T14:42:53.789Z,102058.75
2022-08-23T14:45:21.750Z,102061.34
2022-08-23T14:47:48.897Z,102058.84
2022-08-23T14:50:16.467Z,102057.03
2022-08-23T14:52:47.414Z,102055.78
2022-08-23T14:55:15.902Z,102056.66
2022-08-23T14:57:43.351Z,102056.38
2022-08-23T15:00:15.733Z,102046.00
2022-08-23T15:02:45.643Z,102047.84
2022-08-23T15:05:13.875Z,102035.72
2022-08-23T15:07:41.773Z,102051.28
2022-08-23T15:10:10.938Z,102062.03
2022-08-23T15:15:25.474Z,102051.94
2022-08-23T15:17:56.662Z,102057.13
2022-08-23T15:20:28.937Z,102055.38
2022-08-23T15:22:57.698Z,102058.06
2022-08-23T15:25:29.070Z,102060.75
2022-08-23T15:27:56.604Z,102053.75
2022-08-23T15:30:24.465Z,102059.22
2022-08-23T15:33:03.637Z,102050.41
2022-08-23T15:35:39.839Z,102053.09
2022-08-23T15:38:07.716Z,102053.19
2022-08-23T15:40:35.044Z,102043.47
2022-08-23T15:43:03.571Z,102037.53
2022-08-23T15:45:33.233Z,102043.69
2022-08-23T15:48:04.511Z,102039.34
2022-08-23T15:50:34.852Z,102040.31
2022-08-23T15:53:02.607Z,102033.47
2022-08-23T15:55:33.083Z,102040.31
2022-08-23T15:58:00.596Z,102037.63
2022-08-23T16:00:28.174Z,102030.63
2022-08-23T16:03:19.068Z,102029.84
2022-08-23T16:05:47.572Z,102028.22
2022-08-23T16:08:29.139Z,102034.34
2022-08-23T16:10:57.539Z,102033.47
2022-08-23T16:13:26.646Z,102016.53
2022-08-23T16:15:54.794Z,102023.91
2022-08-23T16:18:22.232Z,102024.06
2022-08-23T16:20:49.465Z,102017.84
2022-08-23T16:23:22.830Z,102027.69
2022-08-23T16:25:50.553Z,102019.06
2022-08-23T16:28:18.191Z,102030.56
2022-08-23T16:30:45.296Z,102028.03
2022-08-23T16:33:12.667Z,102023.06
2022-08-23T16:35:39.695Z,102030.13
2022-08-23T16:38:07.029Z,102024.25
2022-08-23T16:40:34.096Z,102044.69
2022-08-23T16:43:01.307Z,102045.81
2022-08-23T16:45:28.487Z,102037.97
2022-08-23T16:47:55.511Z,102031.97
2022-08-23T16:50:22.610Z,102044.63
2022-08-23T16:52:49.683Z,102049.72
2022-08-23T16:55:17.576Z,102044.63
2022-08-23T16:57:44.942Z,102047.28
2022-08-23T17:00:13.957Z,102050.19
2022-08-23T17:02:43.870Z,102048.78
2022-08-23T17:05:18.705Z,102057.03
2022-08-23T17:07:47.812Z,102066.19
2022-08-23T17:10:18.132Z,102046.28
2022-08-23T17:12:50.452Z,102057.72
2022-08-23T17:15:26.919Z,102049.25
2022-08-23T17:17:54.506Z,102052.13
2022-08-23T17:20:26.528Z,101994.22
2022-08-23T17:22:55.723Z,102055.09
2022-08-23T17:25:23.902Z,102055.25
2022-08-23T17:27:54.875Z,102059.91
2022-08-23T17:30:25.091Z,102062.88
2022-08-23T17:32:53.088Z,102061.63
2022-08-23T17:35:26.306Z,102070.63
2022-08-23T17:37:54.942Z,102054.41
2022-08-23T17:40:36.088Z,102073.97
2022-08-23T17:43:05.025Z,102077.84
2022-08-23T17:45:41.388Z,102080.75
2022-08-23T17:48:08.925Z,102081.25
2022-08-23T17:50:43.586Z,102088.69
2022-08-23T17:53:14.458Z,102079.31
2022-08-23T17:55:43.114Z,102098.81
2022-08-23T17:58:10.251Z,102099.06
2022-08-23T18:00:39.649Z,102100.34
2022-08-23T18:03:07.312Z,102057.28
2022-08-23T18:05:42.881Z,102093.72
2022-08-23T18:08:13.736Z,102121.97
2022-08-23T18:10:41.000Z,102119.50
2022-08-23T18:13:08.438Z,102126.94
2022-08-23T18:15:35.668Z,102128.13
2022-08-23T18:18:02.740Z,102123.31
2022-08-23T18:20:30.966Z,102126.94
2022-08-23T18:22:59.749Z,102142.25
2022-08-23T18:25:28.700Z,102139.97
2022-08-23T18:28:09.237Z,102154.41
2022-08-23T18:30:46.861Z,102142.56
2022-08-23T18:33:15.322Z,102155.94
2022-08-23T18:35:43.918Z,102159.69
2022-08-23T18:38:12.761Z,102164.44
2022-08-23T18:40:46.134Z,102155.97
2022-08-23T18:43:21.216Z,102166.75
2022-08-23T18:45:52.464Z,102175.81
2022-08-23T18:48:21.053Z,102180.53
2022-08-23T18:50:49.682Z,102186.09
2022-08-23T18:53:19.529Z,102179.13
2022-08-23T18:55:46.728Z,102175.97
2022-08-23T18:58:13.896Z,102190.94
2022-08-23T19:00:42.930Z,102159.91
2022-08-23T19:03:11.285Z,102187.00
2022-08-23T19:05:42.495Z,102191.34
2022-08-23T19:08:11.744Z,102169.25
2022-08-23T19:10:43.373Z,102202.41
2022-08-23T19:13:12.278Z,102210.59
2022-08-23T19:15:42.021Z,102213.41
2022-08-23T19:18:10.877Z,102203.16
2022-08-23T19:20:38.806Z,102201.59
2022-08-23T19:23:06.122Z,102220.94
2022-08-23T19:25:33.976Z,102212.25
2022-08-23T19:28:01.097Z,102208.91
2022-08-23T19:30:28.730Z,102210.81
2022-08-23T19:32:56.923Z,102210.13
2022-08-23T19:35:24.342Z,102214.66
2022-08-23T19:37:51.381Z,102221.75
2022-08-23T19:40:19.015Z,102221.75
2022-08-23T19:42:46.184Z,102222.03
2022-08-23T19:45:13.647Z,102209.88
2022-08-23T19:47:40.824Z,102220.56
2022-08-23T19:50:09.745Z,102218.81
2022-08-23T19:52:37.323Z,102227.59
2022-08-23T19:55:07.481Z,102234.97
2022-08-23T19:57:37.524Z,102236.69
2022-08-23T20:00:16.990Z,102234.97
2022-08-23T20:02:45.930Z,102241.28
2022-08-23T20:05:13.072Z,102237.03
2022-08-23T20:07:40.466Z,102231.75
2022-08-23T20:10:09.442Z,102214.38
2022-08-23T20:12:37.913Z,102230.13
2022-08-23T20:15:06.211Z,102235.63
2022-08-23T20:17:33.227Z,102234.00
2022-08-23T20:20:00.368Z,102235.84
2022-08-23T20:22:46.127Z,102245.59
2022-08-23T20:25:13.160Z,102230.78
2022-08-23T20:27:40.184Z,102248.38
2022-08-23T20:30:12.046Z,102243.19
2022-08-23T20:32:39.655Z,102238.84
2022-08-23T20:35:10.209Z,102237.34
2022-08-23T20:37:38.083Z,102248.88
2022-08-23T20:40:10.086Z,102244.59
2022-08-23T20:42:38.427Z,102237.91
2022-08-23T20:45:06.209Z,102253.56
2022-08-23T20:47:33.581Z,102241.53
2022-08-23T20:50:00.737Z,102259.13
2022-08-23T20:52:30.545Z,102247.81
2022-08-23T20:55:00.024Z,102256.63
2022-08-23T20:57:28.633Z,102249.59
2022-08-23T21:00:05.268Z,102255.94
2022-08-23T21:02:32.281Z,102267.34
2022-08-23T21:04:59.589Z,102260.53
2022-08-23T21:07:28.047Z,102258.78
2022-08-23T21:09:55.080Z,102265.88
2022-08-23T21:12:24.670Z,102262.38
2022-08-23T21:14:51.915Z,102262.38
2022-08-23T21:17:19.028Z,102272.13
2022-08-23T21:19:46.026Z,102254.63
2022-08-23T21:22:13.043Z,102261.66
2022-08-23T21:24:40.244Z,102264.38
2022-08-23T21:27:09.668Z,102265.31
2022-08-23T21:29:37.735Z,102260.88
2022-08-23T21:32:05.343Z,102257.41
2022-08-23T21:34:32.879Z,102261.88
2022-08-23T21:36:59.961Z,102259.50
2022-08-23T21:39:27.034Z,102264.59
2022-08-23T21:41:56.058Z,102257.66
2022-08-23T21:44:25.679Z,102247.09
2022-08-23T21:46:52.866Z,102246.38
2022-08-23T21:49:23.327Z,102242.69
2022-08-23T21:51:51.339Z,102245.50
2022-08-23T21:54:18.343Z,102231.66
2022-08-23T21:56:45.950Z,102239.66
2022-08-23T21:59:16.889Z,102251.88
2022-08-23T22:01:44.985Z,102243.97
2022-08-23T22:04:15.033Z,102239.53
2022-08-23T22:06:45.873Z,102243.97
2022-08-23T22:09:19.278Z,102246.69
2022-08-23T22:11:48.560Z,102244.13
2022-08-23T22:14:22.810Z,102238.03
2022-08-23T22:16:55.163Z,102246.94
2022-08-23T22:19:24.085Z,102235.66
2022-08-23T22:21:52.809Z,102242.59
2022-08-23T22:24:25.510Z,102244.38
2022-08-23T22:26:53.396Z,102240.13
2022-08-23T22:29:20.502Z,102240.19
2022-08-23T22:31:48.779Z,102239.31
2022-08-23T22:34:16.018Z,102230.66
2022-08-23T22:36:43.135Z,102235.06
2022-08-23T22:39:10.494Z,102222.09
2022-08-23T22:41:39.030Z,102239.63
2022-08-23T22:44:06.664Z,102240.59
2022-08-23T22:46:35.387Z,102239.78
2022-08-23T22:49:02.890Z,102237.47
2022-08-23T22:51:33.843Z,102253.25
2022-08-23T22:54:06.854Z,102242.69
2022-08-23T22:56:52.867Z,102243.72
2022-08-23T22:59:27.460Z,102255.19
2022-08-23T23:01:57.935Z,102237.84
2022-08-23T23:04:26.547Z,102247.38
2022-08-23T23:06:55.447Z,102257.22
2022-08-23T23:09:23.401Z,102244.91
2022-08-23T23:11:52.937Z,102222.28
2022-08-23T23:14:25.354Z,102242.44
2022-08-23T23:16:53.363Z,102226.78
2022-08-23T23:19:40.093Z,102240.69
2022-08-23T23:22:08.955Z,102246.13
2022-08-23T23:24:39.204Z,102240.06
2022-08-23T23:27:07.426Z,102245.31
2022-08-23T23:29:35.708Z,102239.19
2022-08-23T23:32:03.113Z,102229.59
2022-08-23T23:34:30.282Z,102236.72
2022-08-23T23:36:58.966Z,102241.22
2022-08-23T23:39:27.852Z,102246.47
2022-08-23T23:41:55.488Z,102236.03
2022-08-23T23:44:31.331Z,102249.13
2022-08-23T23:47:01.579Z,102250.03
2022-08-23T23:49:33.138Z,102247.44
2022-08-23T23:52:04.050Z,102241.47
2022-08-23T23:54:38.429Z,102241.41
2022-08-23T23:57:07.149Z,102239.56
2022-08-23T23:59:35.238Z,102247.56
